sensor_id;sensor_type;location;lat;lon;timestamp;temperature;humidity
8109;DHT22;4097;47.812;12.374;2022-10-19T00:01:48;16.40;99.90
8109;DHT22;4097;47.812;12.374;2022-10-19T00:04:15;16.40;99.90
8109;DHT22;4097;47.812;12.374;2022-10-19T00:06:43;16.40;99.90
8109;DHT22;4097;47.812;12.374;2022-10-19T00:09:13;16.40;99.90
8109;DHT22;4097;47.812;12.374;2022-10-19T00:11:42;16.40;99.90
8109;DHT22;4097;47.812;12.374;2022-10-19T00:14:12;16.40;99.90
8109;DHT22;4097;47.812;12.374;2022-10-19T00:16:40;16.40;99.90
8109;DHT22;4097;47.812;12.374;2022-10-19T00:19:10;16.40;99.90
8109;DHT22;4097;47.812;12.374;2022-10-19T00:21:38;16.40;99.90
8109;DHT22;4097;47.812;12.374;2022-10-19T00:24:05;16.40;99.90
8109;DHT22;4097;47.812;12.374;2022-10-19T00:26:34;16.40;99.90
8109;DHT22;4097;47.812;12.374;2022-10-19T00:29:01;16.40;99.90
8109;DHT22;4097;47.812;12.374;2022-10-19T00:31:29;16.40;99.90
8109;DHT22;4097;47.812;12.374;2022-10-19T00:33:56;16.40;99.90
8109;DHT22;4097;47.812;12.374;2022-10-19T00:36:25;16.40;99.90
8109;DHT22;4097;47.812;12.374;2022-10-19T00:38:54;16.30;99.90
8109;DHT22;4097;47.812;12.374;2022-10-19T00:41:22;16.30;99.90
8109;DHT22;4097;47.812;12.374;2022-10-19T00:43:53;16.30;99.90
8109;DHT22;4097;47.812;12.374;2022-10-19T00:46:21;16.30;99.90
8109;DHT22;4097;47.812;12.374;2022-10-19T00:48:48;16.30;99.90
8109;DHT22;4097;47.812;12.374;2022-10-19T00:51:16;16.30;99.90
8109;DHT22;4097;47.812;12.374;2022-10-19T00:53:43;16.30;99.90
8109;DHT22;4097;47.812;12.374;2022-10-19T00:56:12;16.30;99.90
8109;DHT22;4097;47.812;12.374;2022-10-19T00:58:40;16.20;99.90
8109;DHT22;4097;47.812;12.374;2022-10-19T01:01:12;16.20;99.90
8109;DHT22;4097;47.812;12.374;2022-10-19T01:03:41;16.20;99.90
8109;DHT22;4097;47.812;12.374;2022-10-19T01:06:09;16.20;99.90
8109;DHT22;4097;47.812;12.374;2022-10-19T01:08:37;16.20;99.90
8109;DHT22;4097;47.812;12.374;2022-10-19T01:11:14;16.20;99.90
8109;DHT22;4097;47.812;12.374;2022-10-19T01:13:49;16.20;99.90
8109;DHT22;4097;47.812;12.374;2022-10-19T01:16:29;16.20;99.90
8109;DHT22;4097;47.812;12.374;2022-10-19T01:19:03;16.20;99.90
8109;DHT22;4097;47.812;12.374;2022-10-19T01:21:38;16.10;99.90
8109;DHT22;4097;47.812;12.374;2022-10-19T01:24:33;16.10;99.90
8109;DHT22;4097;47.812;12.374;2022-10-19T01:27:34;16.10;99.90
8109;DHT22;4097;47.812;12.374;2022-10-19T01:30:06;16.10;99.90
8109;DHT22;4097;47.812;12.374;2022-10-19T01:32:49;16.10;99.90
8109;DHT22;4097;47.812;12.374;2022-10-19T01:35:23;16.10;99.90
8109;DHT22;4097;47.812;12.374;2022-10-19T01:37:58;16.00;99.90
8109;DHT22;4097;47.812;12.374;2022-10-19T01:40:36;16.00;99.90
8109;DHT22;4097;47.812;12.374;2022-10-19T01:43:10;16.00;99.90
8109;DHT22;4097;47.812;12.374;2022-10-19T01:45:43;15.90;99.90
8109;DHT22;4097;47.812;12.374;2022-10-19T01:48:15;15.90;99.90
8109;DHT22;4097;47.812;12.374;2022-10-19T01:50:48;15.80;99.90
8109;DHT22;4097;47.812;12.374;2022-10-19T01:53:17;15.80;99.90
8109;DHT22;4097;47.812;12.374;2022-10-19T01:55:48;15.80;99.90
8109;DHT22;4097;47.812;12.374;2022-10-19T01:58:18;15.70;99.90
8109;DHT22;4097;47.812;12.374;2022-10-19T02:00:50;15.70;99.90
8109;DHT22;4097;47.812;12.374;2022-10-19T02:03:19;15.60;99.90
8109;DHT22;4097;47.812;12.374;2022-10-19T02:05:47;15.50;99.90
8109;DHT22;4097;47.812;12.374;2022-10-19T02:08:19;15.50;99.90
8109;DHT22;4097;47.812;12.374;2022-10-19T02:10:47;15.40;99.90
8109;DHT22;4097;47.812;12.374;2022-10-19T02:13:15;15.40;99.90
8109;DHT22;4097;47.812;12.374;2022-10-19T02:15:45;15.40;99.90
8109;DHT22;4097;47.812;12.374;2022-10-19T02:18:22;15.40;99.90
8109;DHT22;4097;47.812;12.374;2022-10-19T02:20:49;15.40;99.90
8109;DHT22;4097;47.812;12.374;2022-10-19T02:23:19;15.40;99.90
8109;DHT22;4097;47.812;12.374;2022-10-19T02:25:47;15.40;99.90
8109;DHT22;4097;47.812;12.374;2022-10-19T02:28:14;15.40;99.90
8109;DHT22;4097;47.812;12.374;2022-10-19T02:30:41;15.40;99.90
8109;DHT22;4097;47.812;12.374;2022-10-19T02:33:08;15.40;99.90
8109;DHT22;4097;47.812;12.374;2022-10-19T02:35:38;15.40;99.90
8109;DHT22;4097;47.812;12.374;2022-10-19T02:38:06;15.40;99.90
8109;DHT22;4097;47.812;12.374;2022-10-19T02:40:38;15.40;99.90
8109;DHT22;4097;47.812;12.374;2022-10-19T02:43:10;15.40;99.90
8109;DHT22;4097;47.812;12.374;2022-10-19T02:45:44;15.40;99.90
8109;DHT22;4097;47.812;12.374;2022-10-19T02:48:17;15.40;99.90
8109;DHT22;4097;47.812;12.374;2022-10-19T02:50:47;15.30;99.90
8109;DHT22;4097;47.812;12.374;2022-10-19T02:53:15;15.30;99.90
8109;DHT22;4097;47.812;12.374;2022-10-19T02:55:42;15.30;99.90
8109;DHT22;4097;47.812;12.374;2022-10-19T02:58:09;15.30;99.90
8109;DHT22;4097;47.812;12.374;2022-10-19T03:00:36;15.40;99.90
8109;DHT22;4097;47.812;12.374;2022-10-19T03:03:03;15.30;99.90
8109;DHT22;4097;47.812;12.374;2022-10-19T03:05:30;15.40;99.90
8109;DHT22;4097;47.812;12.374;2022-10-19T03:07:58;15.40;99.90
8109;DHT22;4097;47.812;12.374;2022-10-19T03:10:25;15.40;99.90
8109;DHT22;4097;47.812;12.374;2022-10-19T03:12:52;15.30;99.90
8109;DHT22;4097;47.812;12.374;2022-10-19T03:15:19;15.40;99.90
8109;DHT22;4097;47.812;12.374;2022-10-19T03:17:51;15.40;99.90
8109;DHT22;4097;47.812;12.374;2022-10-19T03:20:18;15.40;99.90
8109;DHT22;4097;47.812;12.374;2022-10-19T03:22:45;15.40;99.90
8109;DHT22;4097;47.812;12.374;2022-10-19T03:25:13;15.30;99.90
8109;DHT22;4097;47.812;12.374;2022-10-19T03:27:40;15.40;99.90
8109;DHT22;4097;47.812;12.374;2022-10-19T03:30:08;15.40;99.90
8109;DHT22;4097;47.812;12.374;2022-10-19T03:32:35;15.40;99.90
8109;DHT22;4097;47.812;12.374;2022-10-19T03:35:02;15.40;99.90
8109;DHT22;4097;47.812;12.374;2022-10-19T03:37:28;15.40;99.90
8109;DHT22;4097;47.812;12.374;2022-10-19T03:39:55;15.40;99.90
8109;DHT22;4097;47.812;12.374;2022-10-19T03:42:24;15.40;99.90
8109;DHT22;4097;47.812;12.374;2022-10-19T03:44:50;15.40;99.90
8109;DHT22;4097;47.812;12.374;2022-10-19T03:47:17;15.40;99.90
8109;DHT22;4097;47.812;12.374;2022-10-19T03:49:44;15.40;99.90
8109;DHT22;4097;47.812;12.374;2022-10-19T03:52:12;15.40;99.90
8109;DHT22;4097;47.812;12.374;2022-10-19T03:54:39;15.40;99.90
8109;DHT22;4097;47.812;12.374;2022-10-19T03:57:05;15.40;99.90
8109;DHT22;4097;47.812;12.374;2022-10-19T03:59:34;15.40;99.90
8109;DHT22;4097;47.812;12.374;2022-10-19T04:02:02;15.40;99.90
8109;DHT22;4097;47.812;12.374;2022-10-19T04:04:29;15.40;99.90
8109;DHT22;4097;47.812;12.374;2022-10-19T04:06:56;15.40;99.90
8109;DHT22;4097;47.812;12.374;2022-10-19T04:09:23;15.40;99.90
8109;DHT22;4097;47.812;12.374;2022-10-19T04:11:50;15.50;99.90
8109;DHT22;4097;47.812;12.374;2022-10-19T04:14:19;15.50;99.90
8109;DHT22;4097;47.812;12.374;2022-10-19T04:16:47;15.50;99.90
8109;DHT22;4097;47.812;12.374;2022-10-19T04:19:15;15.50;99.90
8109;DHT22;4097;47.812;12.374;2022-10-19T04:21:42;15.40;99.90
8109;DHT22;4097;47.812;12.374;2022-10-19T04:24:11;15.50;99.90
8109;DHT22;4097;47.812;12.374;2022-10-19T04:26:40;15.50;99.90
8109;DHT22;4097;47.812;12.374;2022-10-19T04:29:08;15.40;99.90
8109;DHT22;4097;47.812;12.374;2022-10-19T04:31:36;15.40;99.90
8109;DHT22;4097;47.812;12.374;2022-10-19T04:34:05;15.30;99.90
8109;DHT22;4097;47.812;12.374;2022-10-19T04:36:34;15.40;99.90
8109;DHT22;4097;47.812;12.374;2022-10-19T04:39:02;15.40;99.90
8109;DHT22;4097;47.812;12.374;2022-10-19T04:41:28;15.40;99.90
8109;DHT22;4097;47.812;12.374;2022-10-19T04:43:57;15.40;99.90
8109;DHT22;4097;47.812;12.374;2022-10-19T04:46:25;15.40;99.90
8109;DHT22;4097;47.812;12.374;2022-10-19T04:48:52;15.40;99.90
8109;DHT22;4097;47.812;12.374;2022-10-19T04:51:22;15.40;99.90
8109;DHT22;4097;47.812;12.374;2022-10-19T04:53:49;15.40;99.90
8109;DHT22;4097;47.812;12.374;2022-10-19T04:56:18;15.40;99.90
8109;DHT22;4097;47.812;12.374;2022-10-19T04:58:45;15.50;99.90
8109;DHT22;4097;47.812;12.374;2022-10-19T05:01:14;15.50;99.90
8109;DHT22;4097;47.812;12.374;2022-10-19T05:03:41;15.50;99.90
8109;DHT22;4097;47.812;12.374;2022-10-19T05:06:09;15.50;99.90
8109;DHT22;4097;47.812;12.374;2022-10-19T05:08:38;15.50;99.90
8109;DHT22;4097;47.812;12.374;2022-10-19T05:11:07;15.50;99.90
8109;DHT22;4097;47.812;12.374;2022-10-19T05:13:34;15.40;99.90
8109;DHT22;4097;47.812;12.374;2022-10-19T05:16:04;15.50;99.90
8109;DHT22;4097;47.812;12.374;2022-10-19T05:18:31;15.50;99.90
8109;DHT22;4097;47.812;12.374;2022-10-19T05:21:02;15.50;99.90
8109;DHT22;4097;47.812;12.374;2022-10-19T05:23:29;15.50;99.90
8109;DHT22;4097;47.812;12.374;2022-10-19T05:26:04;15.50;99.90
8109;DHT22;4097;47.812;12.374;2022-10-19T05:28:32;15.50;99.90
8109;DHT22;4097;47.812;12.374;2022-10-19T05:31:06;15.40;99.90
8109;DHT22;4097;47.812;12.374;2022-10-19T05:33:34;15.50;99.90
8109;DHT22;4097;47.812;12.374;2022-10-19T05:36:10;15.50;99.90
8109;DHT22;4097;47.812;12.374;2022-10-19T05:38:37;15.50;99.90
8109;DHT22;4097;47.812;12.374;2022-10-19T05:41:05;15.50;99.90
8109;DHT22;4097;47.812;12.374;2022-10-19T05:43:32;15.50;99.90
8109;DHT22;4097;47.812;12.374;2022-10-19T05:46:02;15.50;99.90
8109;DHT22;4097;47.812;12.374;2022-10-19T05:48:30;15.50;99.90
8109;DHT22;4097;47.812;12.374;2022-10-19T05:50:58;15.60;99.90
8109;DHT22;4097;47.812;12.374;2022-10-19T05:53:26;15.60;99.90
8109;DHT22;4097;47.812;12.374;2022-10-19T05:55:53;15.60;99.90
8109;DHT22;4097;47.812;12.374;2022-10-19T05:58:21;15.60;99.90
8109;DHT22;4097;47.812;12.374;2022-10-19T06:00:52;15.60;99.90
8109;DHT22;4097;47.812;12.374;2022-10-19T06:03:19;15.50;99.90
8109;DHT22;4097;47.812;12.374;2022-10-19T06:05:47;15.50;99.90
8109;DHT22;4097;47.812;12.374;2022-10-19T06:08:14;15.50;99.90
8109;DHT22;4097;47.812;12.374;2022-10-19T06:10:41;15.50;99.90
8109;DHT22;4097;47.812;12.374;2022-10-19T06:13:08;15.50;99.90
8109;DHT22;4097;47.812;12.374;2022-10-19T06:15:37;15.50;99.90
8109;DHT22;4097;47.812;12.374;2022-10-19T06:18:05;15.50;99.90
8109;DHT22;4097;47.812;12.374;2022-10-19T06:20:33;15.60;99.90
8109;DHT22;4097;47.812;12.374;2022-10-19T06:23:00;15.60;99.90
8109;DHT22;4097;47.812;12.374;2022-10-19T06:25:28;15.60;99.90
8109;DHT22;4097;47.812;12.374;2022-10-19T06:27:55;15.60;99.90
8109;DHT22;4097;47.812;12.374;2022-10-19T06:30:22;15.60;99.90
8109;DHT22;4097;47.812;12.374;2022-10-19T06:32:51;15.60;99.90
8109;DHT22;4097;47.812;12.374;2022-10-19T06:35:18;15.60;99.90
8109;DHT22;4097;47.812;12.374;2022-10-19T06:37:45;15.60;99.90
8109;DHT22;4097;47.812;12.374;2022-10-19T06:40:12;15.60;99.90
8109;DHT22;4097;47.812;12.374;2022-10-19T06:42:39;15.70;99.90
8109;DHT22;4097;47.812;12.374;2022-10-19T06:45:06;15.70;99.90
8109;DHT22;4097;47.812;12.374;2022-10-19T06:47:34;15.70;99.90
8109;DHT22;4097;47.812;12.374;2022-10-19T06:50:03;15.70;99.90
8109;DHT22;4097;47.812;12.374;2022-10-19T06:52:31;15.70;99.90
8109;DHT22;4097;47.812;12.374;2022-10-19T06:54:58;15.70;99.90
8109;DHT22;4097;47.812;12.374;2022-10-19T06:57:24;15.70;99.90
8109;DHT22;4097;47.812;12.374;2022-10-19T06:59:53;15.70;99.90
8109;DHT22;4097;47.812;12.374;2022-10-19T07:02:20;15.70;99.90
8109;DHT22;4097;47.812;12.374;2022-10-19T07:04:47;15.80;99.90
8109;DHT22;4097;47.812;12.374;2022-10-19T07:07:15;15.80;99.90
8109;DHT22;4097;47.812;12.374;2022-10-19T07:09:42;15.80;99.90
8109;DHT22;4097;47.812;12.374;2022-10-19T07:12:09;15.80;99.90
8109;DHT22;4097;47.812;12.374;2022-10-19T07:14:36;15.80;99.90
8109;DHT22;4097;47.812;12.374;2022-10-19T07:17:04;15.90;99.90
8109;DHT22;4097;47.812;12.374;2022-10-19T07:19:31;15.80;99.90
8109;DHT22;4097;47.812;12.374;2022-10-19T07:21:58;15.90;99.90
8109;DHT22;4097;47.812;12.374;2022-10-19T07:24:27;15.90;99.90
8109;DHT22;4097;47.812;12.374;2022-10-19T07:26:54;15.90;99.90
8109;DHT22;4097;47.812;12.374;2022-10-19T07:29:21;16.00;99.90
8109;DHT22;4097;47.812;12.374;2022-10-19T07:31:48;16.00;99.90
8109;DHT22;4097;47.812;12.374;2022-10-19T07:34:15;16.00;99.90
8109;DHT22;4097;47.812;12.374;2022-10-19T07:36:44;16.00;99.90
8109;DHT22;4097;47.812;12.374;2022-10-19T07:39:13;16.00;99.90
8109;DHT22;4097;47.812;12.374;2022-10-19T07:41:42;16.00;99.90
8109;DHT22;4097;47.812;12.374;2022-10-19T07:44:12;16.00;99.90
8109;DHT22;4097;47.812;12.374;2022-10-19T07:46:39;15.90;99.90
8109;DHT22;4097;47.812;12.374;2022-10-19T07:49:08;15.90;99.90
8109;DHT22;4097;47.812;12.374;2022-10-19T07:51:37;15.80;99.90
8109;DHT22;4097;47.812;12.374;2022-10-19T07:54:04;15.90;99.90
8109;DHT22;4097;47.812;12.374;2022-10-19T07:56:31;16.00;99.90
8109;DHT22;4097;47.812;12.374;2022-10-19T07:59:00;16.00;99.90
8109;DHT22;4097;47.812;12.374;2022-10-19T08:01:29;15.90;99.90
8109;DHT22;4097;47.812;12.374;2022-10-19T08:03:57;16.00;99.90
8109;DHT22;4097;47.812;12.374;2022-10-19T08:06:24;16.00;99.90
8109;DHT22;4097;47.812;12.374;2022-10-19T08:08:52;16.00;99.90
8109;DHT22;4097;47.812;12.374;2022-10-19T08:11:21;16.00;99.90
8109;DHT22;4097;47.812;12.374;2022-10-19T08:13:49;16.00;99.90
8109;DHT22;4097;47.812;12.374;2022-10-19T08:16:25;16.00;99.90
8109;DHT22;4097;47.812;12.374;2022-10-19T08:18:55;16.00;99.90
8109;DHT22;4097;47.812;12.374;2022-10-19T08:21:23;16.10;99.90
8109;DHT22;4097;47.812;12.374;2022-10-19T08:23:50;16.10;99.90
8109;DHT22;4097;47.812;12.374;2022-10-19T08:26:17;16.20;99.90
8109;DHT22;4097;47.812;12.374;2022-10-19T08:28:44;16.20;99.90
8109;DHT22;4097;47.812;12.374;2022-10-19T08:31:13;16.10;99.90
8109;DHT22;4097;47.812;12.374;2022-10-19T08:33:41;16.20;99.90
8109;DHT22;4097;47.812;12.374;2022-10-19T08:36:11;16.20;99.90
8109;DHT22;4097;47.812;12.374;2022-10-19T08:38:39;16.20;99.90
8109;DHT22;4097;47.812;12.374;2022-10-19T08:41:21;16.20;99.90
8109;DHT22;4097;47.812;12.374;2022-10-19T08:43:57;16.20;99.90
8109;DHT22;4097;47.812;12.374;2022-10-19T08:46:32;16.30;99.90
8109;DHT22;4097;47.812;12.374;2022-10-19T08:49:02;16.30;99.90
8109;DHT22;4097;47.812;12.374;2022-10-19T08:51:33;16.30;99.90
8109;DHT22;4097;47.812;12.374;2022-10-19T08:54:06;16.30;99.90
8109;DHT22;4097;47.812;12.374;2022-10-19T08:56:41;16.20;99.90
8109;DHT22;4097;47.812;12.374;2022-10-19T08:59:15;16.20;99.90
8109;DHT22;4097;47.812;12.374;2022-10-19T09:01:48;16.20;99.90
8109;DHT22;4097;47.812;12.374;2022-10-19T09:04:21;16.20;99.90
8109;DHT22;4097;47.812;12.374;2022-10-19T09:06:57;16.20;99.90
8109;DHT22;4097;47.812;12.374;2022-10-19T09:09:29;16.30;99.90
8109;DHT22;4097;47.812;12.374;2022-10-19T09:12:02;16.30;99.90
8109;DHT22;4097;47.812;12.374;2022-10-19T09:14:30;16.30;99.90
8109;DHT22;4097;47.812;12.374;2022-10-19T09:17:05;16.40;99.90
8109;DHT22;4097;47.812;12.374;2022-10-19T09:19:38;16.40;99.90
8109;DHT22;4097;47.812;12.374;2022-10-19T09:22:07;16.50;99.90
8109;DHT22;4097;47.812;12.374;2022-10-19T09:24:39;16.40;99.90
8109;DHT22;4097;47.812;12.374;2022-10-19T09:27:14;16.40;99.90
8109;DHT22;4097;47.812;12.374;2022-10-19T09:29:45;16.40;99.90
8109;DHT22;4097;47.812;12.374;2022-10-19T09:32:15;16.40;99.90
8109;DHT22;4097;47.812;12.374;2022-10-19T09:34:49;16.40;99.90
8109;DHT22;4097;47.812;12.374;2022-10-19T09:37:17;16.30;99.90
8109;DHT22;4097;47.812;12.374;2022-10-19T09:39:44;16.30;99.90
8109;DHT22;4097;47.812;12.374;2022-10-19T09:42:19;16.30;99.90
8109;DHT22;4097;47.812;12.374;2022-10-19T09:44:47;16.30;99.90
8109;DHT22;4097;47.812;12.374;2022-10-19T09:47:32;16.30;99.90
8109;DHT22;4097;47.812;12.374;2022-10-19T09:50:15;16.40;99.90
8109;DHT22;4097;47.812;12.374;2022-10-19T09:52:43;16.50;99.90
8109;DHT22;4097;47.812;12.374;2022-10-19T09:55:26;16.40;99.90
8109;DHT22;4097;47.812;12.374;2022-10-19T09:58:00;16.40;99.90
8109;DHT22;4097;47.812;12.374;2022-10-19T10:00:36;16.50;99.90
8109;DHT22;4097;47.812;12.374;2022-10-19T10:03:04;16.40;99.90
8109;DHT22;4097;47.812;12.374;2022-10-19T10:05:35;16.40;99.90
8109;DHT22;4097;47.812;12.374;2022-10-19T10:08:03;16.40;99.90
8109;DHT22;4097;47.812;12.374;2022-10-19T10:10:38;16.40;99.90
8109;DHT22;4097;47.812;12.374;2022-10-19T10:13:12;16.40;99.90
8109;DHT22;4097;47.812;12.374;2022-10-19T10:15:42;16.40;99.90
8109;DHT22;4097;47.812;12.374;2022-10-19T10:18:13;16.40;99.90
8109;DHT22;4097;47.812;12.374;2022-10-19T10:20:57;16.40;99.90
8109;DHT22;4097;47.812;12.374;2022-10-19T10:23:26;16.40;99.90
8109;DHT22;4097;47.812;12.374;2022-10-19T10:25:55;16.40;99.90
8109;DHT22;4097;47.812;12.374;2022-10-19T10:28:24;16.50;99.90
8109;DHT22;4097;47.812;12.374;2022-10-19T10:30:54;16.50;99.90
8109;DHT22;4097;47.812;12.374;2022-10-19T10:33:26;16.50;99.90
8109;DHT22;4097;47.812;12.374;2022-10-19T10:36:00;16.60;99.90
8109;DHT22;4097;47.812;12.374;2022-10-19T10:38:31;16.70;99.90
8109;DHT22;4097;47.812;12.374;2022-10-19T10:41:01;16.70;99.90
8109;DHT22;4097;47.812;12.374;2022-10-19T10:43:34;16.80;99.90
8109;DHT22;4097;47.812;12.374;2022-10-19T10:46:04;16.80;99.90
8109;DHT22;4097;47.812;12.374;2022-10-19T10:48:35;17.00;99.90
8109;DHT22;4097;47.812;12.374;2022-10-19T10:51:10;17.10;99.90
8109;DHT22;4097;47.812;12.374;2022-10-19T10:53:44;17.20;99.90
8109;DHT22;4097;47.812;12.374;2022-10-19T10:56:21;17.20;99.90
8109;DHT22;4097;47.812;12.374;2022-10-19T10:58:56;17.10;99.90
8109;DHT22;4097;47.812;12.374;2022-10-19T11:01:28;17.20;99.90
8109;DHT22;4097;47.812;12.374;2022-10-19T11:04:00;17.20;99.90
8109;DHT22;4097;47.812;12.374;2022-10-19T11:06:30;17.20;99.90
8109;DHT22;4097;47.812;12.374;2022-10-19T11:09:06;17.10;99.90
8109;DHT22;4097;47.812;12.374;2022-10-19T11:11:39;17.10;99.90
8109;DHT22;4097;47.812;12.374;2022-10-19T11:14:33;17.20;99.90
8109;DHT22;4097;47.812;12.374;2022-10-19T11:17:04;17.20;99.90
8109;DHT22;4097;47.812;12.374;2022-10-19T11:19:34;17.20;99.90
8109;DHT22;4097;47.812;12.374;2022-10-19T11:22:09;17.20;99.90
8109;DHT22;4097;47.812;12.374;2022-10-19T11:24:47;17.30;99.90
8109;DHT22;4097;47.812;12.374;2022-10-19T11:27:23;17.40;99.90
8109;DHT22;4097;47.812;12.374;2022-10-19T11:30:08;17.30;99.90
8109;DHT22;4097;47.812;12.374;2022-10-19T11:32:51;17.30;99.90
8109;DHT22;4097;47.812;12.374;2022-10-19T11:35:31;17.20;99.90
8109;DHT22;4097;47.812;12.374;2022-10-19T11:38:11;17.30;99.90
8109;DHT22;4097;47.812;12.374;2022-10-19T11:40:46;17.30;99.90
8109;DHT22;4097;47.812;12.374;2022-10-19T11:43:21;17.30;99.90
8109;DHT22;4097;47.812;12.374;2022-10-19T11:45:56;17.30;99.90
8109;DHT22;4097;47.812;12.374;2022-10-19T11:48:43;17.40;99.90
8109;DHT22;4097;47.812;12.374;2022-10-19T11:51:19;17.30;99.90
8109;DHT22;4097;47.812;12.374;2022-10-19T11:53:58;17.30;99.90
8109;DHT22;4097;47.812;12.374;2022-10-19T11:56:34;17.40;99.90
8109;DHT22;4097;47.812;12.374;2022-10-19T11:59:08;17.40;99.90
8109;DHT22;4097;47.812;12.374;2022-10-19T12:01:50;17.40;99.90
8109;DHT22;4097;47.812;12.374;2022-10-19T12:04:33;17.30;99.90
8109;DHT22;4097;47.812;12.374;2022-10-19T12:07:14;17.30;99.90
8109;DHT22;4097;47.812;12.374;2022-10-19T12:09:52;17.30;99.90
8109;DHT22;4097;47.812;12.374;2022-10-19T12:12:25;17.30;99.90
8109;DHT22;4097;47.812;12.374;2022-10-19T12:15:03;17.20;99.90
8109;DHT22;4097;47.812;12.374;2022-10-19T12:17:34;17.30;99.90
8109;DHT22;4097;47.812;12.374;2022-10-19T12:20:05;17.30;99.90
8109;DHT22;4097;47.812;12.374;2022-10-19T12:22:35;17.30;99.90
8109;DHT22;4097;47.812;12.374;2022-10-19T12:25:05;17.40;99.90
8109;DHT22;4097;47.812;12.374;2022-10-19T12:27:34;17.40;99.90
8109;DHT22;4097;47.812;12.374;2022-10-19T12:30:05;17.40;99.90
8109;DHT22;4097;47.812;12.374;2022-10-19T12:32:38;17.40;99.90
8109;DHT22;4097;47.812;12.374;2022-10-19T12:35:20;17.40;99.90
8109;DHT22;4097;47.812;12.374;2022-10-19T12:37:54;17.30;99.90
8109;DHT22;4097;47.812;12.374;2022-10-19T12:40:31;17.40;99.90
8109;DHT22;4097;47.812;12.374;2022-10-19T12:43:06;17.30;99.90
8109;DHT22;4097;47.812;12.374;2022-10-19T12:45:35;17.30;99.90
8109;DHT22;4097;47.812;12.374;2022-10-19T12:48:22;17.30;99.90
8109;DHT22;4097;47.812;12.374;2022-10-19T12:51:11;17.30;99.90
8109;DHT22;4097;47.812;12.374;2022-10-19T12:53:40;17.30;99.90
8109;DHT22;4097;47.812;12.374;2022-10-19T12:56:14;17.30;99.90
8109;DHT22;4097;47.812;12.374;2022-10-19T12:58:52;17.30;99.90
8109;DHT22;4097;47.812;12.374;2022-10-19T13:01:22;17.40;99.90
8109;DHT22;4097;47.812;12.374;2022-10-19T13:03:53;17.40;99.90
8109;DHT22;4097;47.812;12.374;2022-10-19T13:06:33;17.50;99.90
8109;DHT22;4097;47.812;12.374;2022-10-19T13:09:02;17.40;99.90
8109;DHT22;4097;47.812;12.374;2022-10-19T13:11:31;17.50;99.90
8109;DHT22;4097;47.812;12.374;2022-10-19T13:14:04;17.50;99.90
8109;DHT22;4097;47.812;12.374;2022-10-19T13:16:38;17.50;99.90
8109;DHT22;4097;47.812;12.374;2022-10-19T13:19:20;17.50;99.90
8109;DHT22;4097;47.812;12.374;2022-10-19T13:22:25;17.50;99.90
8109;DHT22;4097;47.812;12.374;2022-10-19T13:27:55;17.50;99.90
8109;DHT22;4097;47.812;12.374;2022-10-19T13:30:57;17.50;99.90
8109;DHT22;4097;47.812;12.374;2022-10-19T13:33:47;17.50;99.90
8109;DHT22;4097;47.812;12.374;2022-10-19T13:36:14;17.60;99.90
8109;DHT22;4097;47.812;12.374;2022-10-19T13:38:43;17.60;99.90
8109;DHT22;4097;47.812;12.374;2022-10-19T13:41:13;17.60;99.90
8109;DHT22;4097;47.812;12.374;2022-10-19T13:43:51;17.60;99.90
8109;DHT22;4097;47.812;12.374;2022-10-19T13:46:24;17.50;99.90
8109;DHT22;4097;47.812;12.374;2022-10-19T13:49:28;17.50;99.90
8109;DHT22;4097;47.812;12.374;2022-10-19T13:52:07;17.50;99.90
8109;DHT22;4097;47.812;12.374;2022-10-19T13:54:58;17.50;99.90
8109;DHT22;4097;47.812;12.374;2022-10-19T13:57:33;17.50;99.90
8109;DHT22;4097;47.812;12.374;2022-10-19T14:00:14;17.50;99.90
8109;DHT22;4097;47.812;12.374;2022-10-19T14:03:13;17.50;99.90
8109;DHT22;4097;47.812;12.374;2022-10-19T14:08:39;17.60;99.90
8109;DHT22;4097;47.812;12.374;2022-10-19T14:11:12;17.60;99.90
8109;DHT22;4097;47.812;12.374;2022-10-19T14:13:40;17.70;99.90
8109;DHT22;4097;47.812;12.374;2022-10-19T14:16:18;17.70;99.90
8109;DHT22;4097;47.812;12.374;2022-10-19T14:18:52;17.70;99.90
8109;DHT22;4097;47.812;12.374;2022-10-19T14:21:28;17.70;99.90
8109;DHT22;4097;47.812;12.374;2022-10-19T14:23:56;17.60;99.90
8109;DHT22;4097;47.812;12.374;2022-10-19T14:26:25;17.60;99.90
8109;DHT22;4097;47.812;12.374;2022-10-19T14:28:55;17.50;99.90
8109;DHT22;4097;47.812;12.374;2022-10-19T14:31:28;17.50;99.90
8109;DHT22;4097;47.812;12.374;2022-10-19T14:34:01;17.40;99.90
8109;DHT22;4097;47.812;12.374;2022-10-19T14:36:32;17.40;99.90
8109;DHT22;4097;47.812;12.374;2022-10-19T14:39:00;17.40;99.90
8109;DHT22;4097;47.812;12.374;2022-10-19T14:41:32;17.40;99.90
8109;DHT22;4097;47.812;12.374;2022-10-19T14:44:00;17.40;99.90
8109;DHT22;4097;47.812;12.374;2022-10-19T14:46:30;17.40;99.90
8109;DHT22;4097;47.812;12.374;2022-10-19T14:48:59;17.40;99.90
8109;DHT22;4097;47.812;12.374;2022-10-19T14:51:34;17.40;99.90
8109;DHT22;4097;47.812;12.374;2022-10-19T14:54:04;17.50;99.90
8109;DHT22;4097;47.812;12.374;2022-10-19T14:56:33;17.40;99.90
8109;DHT22;4097;47.812;12.374;2022-10-19T14:59:05;17.40;99.90
8109;DHT22;4097;47.812;12.374;2022-10-19T15:01:35;17.40;99.90
8109;DHT22;4097;47.812;12.374;2022-10-19T15:04:02;17.40;99.90
8109;DHT22;4097;47.812;12.374;2022-10-19T15:06:31;17.30;99.90
8109;DHT22;4097;47.812;12.374;2022-10-19T15:09:03;17.30;99.90
8109;DHT22;4097;47.812;12.374;2022-10-19T15:11:37;17.30;99.90
8109;DHT22;4097;47.812;12.374;2022-10-19T15:14:07;17.30;99.90
8109;DHT22;4097;47.812;12.374;2022-10-19T15:16:45;17.30;99.90
8109;DHT22;4097;47.812;12.374;2022-10-19T15:19:20;17.30;99.90
8109;DHT22;4097;47.812;12.374;2022-10-19T15:22:14;17.20;99.90
8109;DHT22;4097;47.812;12.374;2022-10-19T15:24:55;17.20;99.90
8109;DHT22;4097;47.812;12.374;2022-10-19T15:27:29;17.20;99.90
8109;DHT22;4097;47.812;12.374;2022-10-19T15:29:58;17.20;99.90
8109;DHT22;4097;47.812;12.374;2022-10-19T15:32:31;17.10;99.90
8109;DHT22;4097;47.812;12.374;2022-10-19T15:35:07;17.20;99.90
8109;DHT22;4097;47.812;12.374;2022-10-19T15:37:35;17.20;99.90
8109;DHT22;4097;47.812;12.374;2022-10-19T15:40:09;17.20;99.90
8109;DHT22;4097;47.812;12.374;2022-10-19T15:42:38;17.10;99.90
8109;DHT22;4097;47.812;12.374;2022-10-19T15:45:27;17.20;99.90
8109;DHT22;4097;47.812;12.374;2022-10-19T15:48:27;17.20;99.90
8109;DHT22;4097;47.812;12.374;2022-10-19T15:50:55;17.20;99.90
8109;DHT22;4097;47.812;12.374;2022-10-19T15:53:22;17.20;99.90
8109;DHT22;4097;47.812;12.374;2022-10-19T15:55:50;17.20;99.90
8109;DHT22;4097;47.812;12.374;2022-10-19T15:58:17;17.10;99.90
8109;DHT22;4097;47.812;12.374;2022-10-19T16:00:45;17.10;99.90
8109;DHT22;4097;47.812;12.374;2022-10-19T16:03:15;17.10;99.90
8109;DHT22;4097;47.812;12.374;2022-10-19T16:05:43;17.00;99.90
8109;DHT22;4097;47.812;12.374;2022-10-19T16:08:11;17.10;99.90
8109;DHT22;4097;47.812;12.374;2022-10-19T16:10:39;17.00;99.90
8109;DHT22;4097;47.812;12.374;2022-10-19T16:13:06;17.00;99.90
8109;DHT22;4097;47.812;12.374;2022-10-19T16:15:33;17.00;99.90
8109;DHT22;4097;47.812;12.374;2022-10-19T16:18:00;17.00;99.90